createdAt,value
2023-02-25T00:02:04.766Z,10.57
2023-02-25T00:04:32.254Z,10.67
2023-02-25T00:06:59.412Z,11.13
2023-02-25T00:09:27.088Z,10.47
2023-02-25T00:11:54.200Z,9.77
2023-02-25T00:14:21.292Z,9.80
2023-02-25T00:16:49.938Z,9.37
2023-02-25T00:19:17.093Z,10.30
2023-02-25T00:21:44.668Z,9.70
2023-02-25T00:24:16.704Z,8.77
2023-02-25T00:26:44.081Z,9.13
2023-02-25T00:29:11.203Z,10.00
2023-02-25T00:31:38.489Z,8.93
2023-02-25T00:34:05.717Z,9.37
2023-02-25T00:36:33.114Z,8.60
2023-02-25T00:39:00.312Z,8.93
2023-02-25T00:41:28.653Z,8.23
2023-02-25T00:43:57.441Z,8.33
2023-02-25T00:46:25.885Z,8.87
2023-02-25T00:48:53.494Z,7.80
2023-02-25T00:51:24.314Z,7.60
2023-02-25T00:53:52.138Z,7.83
2023-02-25T00:56:20.296Z,7.67
2023-02-25T00:58:49.041Z,7.40
2023-02-25T01:01:24.134Z,5.63
2023-02-25T01:03:52.123Z,6.03
2023-02-25T01:06:20.249Z,6.63
2023-02-25T01:08:47.662Z,5.97
2023-02-25T01:11:16.167Z,5.80
2023-02-25T01:13:43.846Z,4.10
2023-02-25T01:16:30.228Z,4.67
2023-02-25T01:18:59.109Z,4.27
2023-02-25T01:21:27.631Z,4.17
2023-02-25T01:23:58.910Z,4.03
2023-02-25T01:26:27.244Z,4.47
2023-02-25T01:28:55.825Z,4.10
2023-02-25T01:31:25.029Z,3.73
2023-02-25T01:33:52.274Z,3.90
2023-02-25T01:36:19.524Z,4.03
2023-02-25T01:38:46.811Z,4.00
2023-02-25T01:41:13.947Z,3.60
2023-02-25T01:43:41.506Z,3.67
2023-02-25T01:46:08.718Z,3.67
2023-02-25T01:48:37.439Z,4.33
2023-02-25T01:51:09.212Z,4.17
2023-02-25T01:53:39.210Z,4.60
2023-02-25T01:56:06.534Z,4.80
2023-02-25T01:58:34.393Z,5.83
2023-02-25T02:01:01.774Z,5.43
2023-02-25T02:03:31.809Z,5.87
2023-02-25T02:06:04.735Z,5.03
2023-02-25T02:08:33.024Z,4.20
2023-02-25T02:11:00.226Z,4.97
2023-02-25T02:13:27.461Z,4.63
2023-02-25T02:16:03.343Z,4.87
2023-02-25T02:18:32.584Z,4.30
2023-02-25T02:21:10.134Z,4.20
2023-02-25T02:23:56.049Z,4.80
2023-02-25T02:26:33.350Z,4.70
2023-02-25T02:29:10.847Z,4.13
2023-02-25T02:31:41.112Z,4.33
2023-02-25T02:34:20.470Z,4.17
2023-02-25T02:36:47.609Z,4.67
2023-02-25T02:39:19.123Z,4.17
2023-02-25T02:41:53.863Z,4.13
2023-02-25T02:44:23.762Z,4.37
2023-02-25T02:46:58.294Z,4.13
2023-02-25T02:49:31.139Z,4.17
2023-02-25T02:52:15.197Z,4.00
2023-02-25T02:54:44.382Z,3.70
2023-02-25T02:57:12.446Z,3.40
2023-02-25T03:00:00.264Z,3.83
2023-02-25T03:02:47.750Z,3.80
2023-02-25T03:05:19.195Z,3.80
2023-02-25T03:07:51.957Z,3.90
2023-02-25T03:10:20.579Z,3.67
2023-02-25T03:12:47.730Z,4.17
2023-02-25T03:15:14.993Z,4.03
2023-02-25T03:17:43.603Z,3.80
2023-02-25T03:20:17.268Z,4.00
2023-02-25T03:22:46.868Z,4.17
2023-02-25T03:25:16.536Z,3.80
2023-02-25T03:27:45.160Z,3.50
2023-02-25T03:30:13.035Z,4.27
2023-02-25T03:32:41.501Z,4.13
2023-02-25T03:35:10.139Z,3.90
2023-02-25T03:37:38.856Z,4.10
2023-02-25T03:40:11.477Z,4.47
2023-02-25T03:42:39.985Z,3.53
2023-02-25T03:45:08.604Z,4.77
2023-02-25T03:47:36.916Z,4.00
2023-02-25T03:50:07.801Z,3.00
2023-02-25T03:52:35.104Z,4.23
2023-02-25T03:55:03.074Z,4.07
2023-02-25T03:57:38.090Z,4.23
2023-02-25T04:00:15.530Z,4.50
2023-02-25T04:02:43.172Z,4.47
2023-02-25T04:05:10.526Z,4.67
2023-02-25T04:07:37.622Z,4.87
2023-02-25T04:10:05.536Z,5.23
2023-02-25T04:12:32.773Z,5.20
2023-02-25T04:14:59.874Z,4.80
2023-02-25T04:17:27.000Z,4.97
2023-02-25T04:19:54.122Z,4.17
2023-02-25T04:22:21.228Z,4.10
2023-02-25T04:24:48.295Z,4.33
2023-02-25T04:27:15.713Z,4.27
2023-02-25T04:29:43.382Z,4.37
2023-02-25T04:32:11.284Z,4.33
2023-02-25T04:34:38.676Z,4.87
2023-02-25T04:37:06.025Z,4.60
2023-02-25T04:39:33.482Z,4.00
2023-02-25T04:42:01.046Z,4.33
2023-02-25T04:44:28.191Z,3.97
2023-02-25T04:46:55.492Z,4.33
2023-02-25T04:49:23.289Z,4.70
2023-02-25T04:51:51.524Z,4.20
2023-02-25T04:54:19.541Z,4.20
2023-02-25T04:56:46.676Z,4.13
2023-02-25T04:59:13.841Z,3.90
2023-02-25T05:01:41.055Z,4.10
2023-02-25T05:04:08.251Z,4.13
2023-02-25T05:06:35.367Z,3.50
2023-02-25T05:09:02.777Z,3.67
2023-02-25T05:11:31.302Z,4.33
2023-02-25T05:13:58.494Z,3.70
2023-02-25T05:16:26.203Z,3.27
2023-02-25T05:18:53.689Z,3.80
2023-02-25T05:21:22.295Z,4.10
2023-02-25T05:23:50.332Z,3.60
2023-02-25T05:26:21.661Z,3.93
2023-02-25T05:28:55.321Z,3.90
2023-02-25T05:31:23.617Z,4.10
2023-02-25T05:33:51.194Z,4.80
2023-02-25T05:36:18.482Z,4.47
2023-02-25T05:38:45.741Z,3.77
2023-02-25T05:41:13.307Z,3.83
2023-02-25T05:43:40.533Z,3.73
2023-02-25T05:46:11.825Z,3.97
2023-02-25T05:48:39.629Z,3.60
2023-02-25T05:51:12.786Z,3.90
2023-02-25T05:53:40.276Z,3.97
2023-02-25T05:56:08.338Z,4.10
2023-02-25T05:58:36.081Z,3.83
2023-02-25T06:01:11.461Z,4.20
2023-02-25T06:03:38.913Z,4.27
2023-02-25T06:06:06.831Z,3.87
2023-02-25T06:08:34.219Z,3.70
2023-02-25T06:11:02.172Z,4.03
2023-02-25T06:13:29.337Z,4.33
2023-02-25T06:15:56.520Z,4.83
2023-02-25T06:18:23.688Z,4.80
2023-02-25T06:20:51.001Z,4.83
2023-02-25T06:23:18.327Z,4.43
2023-02-25T06:25:45.481Z,4.80
2023-02-25T06:28:12.700Z,5.10
2023-02-25T06:30:42.698Z,4.60
2023-02-25T06:33:09.867Z,4.67
2023-02-25T06:35:36.979Z,5.20
2023-02-25T06:38:04.214Z,4.90
2023-02-25T06:40:33.495Z,4.97
2023-02-25T06:43:00.622Z,4.63
2023-02-25T06:45:27.788Z,4.73
2023-02-25T06:47:54.963Z,4.70
2023-02-25T06:50:22.085Z,4.63
2023-02-25T06:52:49.218Z,5.33
2023-02-25T06:55:16.402Z,5.60
2023-02-25T06:57:43.503Z,5.33
2023-02-25T07:00:10.976Z,5.73
2023-02-25T07:02:38.109Z,5.27
2023-02-25T07:05:05.591Z,5.27
2023-02-25T07:07:32.789Z,5.17
2023-02-25T07:09:59.902Z,5.10
2023-02-25T07:12:26.998Z,4.93
2023-02-25T07:14:54.123Z,5.23
2023-02-25T07:17:21.440Z,5.13
2023-02-25T07:19:48.571Z,5.20
2023-02-25T07:22:16.734Z,5.17
2023-02-25T07:24:44.116Z,5.63
2023-02-25T07:27:13.044Z,5.00
2023-02-25T07:29:40.641Z,5.03
2023-02-25T07:32:09.194Z,5.17
2023-02-25T07:34:37.944Z,5.57
2023-02-25T07:37:05.079Z,5.13
2023-02-25T07:39:32.198Z,4.87
2023-02-25T07:41:59.393Z,5.20
2023-02-25T07:44:26.528Z,5.53
2023-02-25T07:46:53.650Z,4.73
2023-02-25T07:49:20.726Z,4.13
2023-02-25T07:51:47.889Z,4.80
2023-02-25T07:54:15.873Z,4.60
2023-02-25T07:56:43.005Z,4.83
2023-02-25T07:59:11.078Z,4.67
2023-02-25T08:01:39.618Z,4.90
2023-02-25T08:04:07.419Z,5.13
2023-02-25T08:06:38.304Z,4.90
2023-02-25T08:09:06.151Z,4.43
2023-02-25T08:11:33.292Z,4.67
2023-02-25T08:14:01.629Z,4.53
2023-02-25T08:16:28.821Z,4.33
2023-02-25T08:18:55.993Z,3.83
2023-02-25T08:21:24.303Z,4.33
2023-02-25T08:23:58.283Z,4.13
2023-02-25T08:26:27.549Z,3.70
2023-02-25T08:28:54.848Z,4.07
2023-02-25T08:31:22.676Z,3.67
2023-02-25T08:33:52.704Z,3.23
2023-02-25T08:36:23.716Z,3.90
2023-02-25T08:38:51.399Z,3.10
2023-02-25T08:41:19.282Z,2.80
2023-02-25T08:43:49.412Z,3.47
2023-02-25T08:46:16.583Z,3.40
2023-02-25T08:48:43.816Z,3.47
2023-02-25T08:51:11.754Z,3.60
2023-02-25T08:53:39.973Z,3.37
2023-02-25T08:56:08.270Z,3.23
2023-02-25T08:58:35.725Z,4.00
2023-02-25T09:01:08.845Z,3.23
2023-02-25T09:03:36.185Z,3.80
2023-02-25T09:06:03.396Z,3.80
2023-02-25T09:08:31.496Z,3.57
2023-02-25T09:10:58.674Z,3.53
2023-02-25T09:13:25.853Z,2.90
2023-02-25T09:15:57.172Z,3.60
2023-02-25T09:18:24.432Z,3.60
2023-02-25T09:20:51.898Z,3.90
2023-02-25T09:23:19.356Z,3.87
2023-02-25T09:25:46.499Z,3.33
2023-02-25T09:28:13.894Z,3.50
2023-02-25T09:30:41.118Z,3.50
2023-02-25T09:33:08.438Z,3.90
2023-02-25T09:35:35.685Z,3.37
2023-02-25T09:38:02.789Z,3.13
2023-02-25T09:40:29.934Z,3.97
2023-02-25T09:43:15.863Z,3.63
2023-02-25T09:45:47.337Z,4.10
2023-02-25T09:48:40.696Z,3.97
2023-02-25T09:51:22.612Z,3.90
2023-02-25T09:53:54.874Z,4.57
2023-02-25T09:56:23.736Z,4.67
2023-02-25T09:58:53.057Z,4.03
2023-02-25T10:01:34.275Z,4.80
2023-02-25T10:04:16.491Z,4.53
2023-02-25T10:06:46.821Z,3.77
2023-02-25T10:09:29.204Z,4.97
2023-02-25T10:12:10.136Z,4.20
2023-02-25T10:14:37.301Z,4.63
2023-02-25T10:17:21.986Z,4.70
2023-02-25T10:20:03.897Z,4.17
2023-02-25T10:22:35.539Z,4.27
2023-02-25T10:25:05.650Z,4.83
2023-02-25T10:27:39.639Z,4.20
2023-02-25T10:30:06.938Z,3.90
2023-02-25T10:32:37.828Z,4.77
2023-02-25T10:35:25.428Z,4.67
2023-02-25T10:37:52.990Z,4.57
2023-02-25T10:40:21.762Z,5.27
2023-02-25T10:42:50.803Z,4.77
2023-02-25T10:45:21.204Z,4.80
2023-02-25T10:47:50.213Z,5.00
2023-02-25T10:50:17.353Z,4.90
2023-02-25T10:52:56.434Z,5.23
2023-02-25T10:55:28.734Z,4.40
2023-02-25T10:57:57.705Z,4.20
2023-02-25T11:00:27.501Z,4.17
2023-02-25T11:02:54.710Z,3.97
2023-02-25T11:05:31.048Z,3.97
2023-02-25T11:07:58.293Z,4.07
2023-02-25T11:10:25.511Z,4.40
2023-02-25T11:12:54.270Z,3.50
2023-02-25T11:15:43.062Z,2.83
2023-02-25T11:18:17.371Z,3.27
2023-02-25T11:21:10.779Z,3.03
2023-02-25T11:23:44.004Z,4.53
2023-02-25T11:26:18.546Z,3.73
2023-02-25T11:28:48.618Z,3.47
2023-02-25T11:31:19.171Z,3.90
2023-02-25T11:33:50.838Z,3.80
2023-02-25T11:36:23.570Z,4.33
2023-02-25T11:39:03.560Z,3.70
2023-02-25T11:41:35.189Z,4.00
2023-02-25T11:44:31.831Z,3.73
2023-02-25T11:47:14.258Z,3.90
2023-02-25T11:49:49.514Z,4.03
2023-02-25T11:52:16.650Z,4.17
2023-02-25T11:54:43.714Z,3.17
2023-02-25T11:57:18.793Z,4.07
2023-02-25T12:00:04.852Z,3.23
2023-02-25T12:02:37.485Z,4.20
2023-02-25T12:05:23.980Z,4.90
2023-02-25T12:08:14.380Z,5.17
2023-02-25T12:10:41.735Z,5.07
2023-02-25T12:13:11.106Z,4.60
2023-02-25T12:15:45.095Z,5.23
2023-02-25T12:18:33.422Z,5.93
2023-02-25T12:21:19.830Z,7.07
2023-02-25T12:24:05.667Z,4.53
2023-02-25T12:26:43.994Z,3.70
2023-02-25T12:29:16.562Z,3.37
2023-02-25T12:32:02.114Z,2.77
2023-02-25T12:34:55.719Z,2.10
2023-02-25T12:37:32.364Z,2.50
2023-02-25T12:40:20.869Z,2.80
2023-02-25T12:42:53.801Z,2.20
2023-02-25T12:45:23.834Z,2.27
2023-02-25T12:47:52.730Z,1.70
2023-02-25T12:50:35.368Z,2.60
2023-02-25T12:53:02.487Z,1.53
2023-02-25T12:55:41.487Z,1.87
2023-02-25T12:58:16.635Z,1.60
2023-02-25T13:00:52.824Z,1.77
2023-02-25T13:03:33.605Z,1.60
2023-02-25T13:06:07.809Z,1.30
2023-02-25T13:08:47.028Z,1.90
2023-02-25T13:11:16.942Z,2.23
2023-02-25T13:13:52.646Z,2.30
2023-02-25T13:16:28.899Z,1.90
2023-02-25T13:19:02.016Z,2.30
2023-02-25T13:21:29.165Z,2.37
2023-02-25T13:24:02.568Z,2.60
2023-02-25T13:26:35.710Z,3.00
2023-02-25T13:29:14.831Z,2.10
2023-02-25T13:32:00.658Z,3.03
2023-02-25T13:34:46.448Z,2.40
2023-02-25T13:37:29.685Z,3.40
2023-02-25T13:40:05.357Z,3.13
2023-02-25T13:42:51.262Z,4.13
2023-02-25T13:45:37.089Z,2.20
2023-02-25T13:48:23.140Z,3.40
2023-02-25T13:51:13.647Z,6.80
2023-02-25T13:54:00.998Z,3.70
2023-02-25T13:56:37.006Z,2.97
2023-02-25T13:59:23.021Z,0.90
2023-02-25T14:02:05.085Z,1.03
2023-02-25T14:04:51.088Z,1.17
2023-02-25T14:07:32.911Z,2.00
2023-02-25T14:10:00.010Z,4.20
2023-02-25T14:12:27.113Z,1.80
2023-02-25T14:15:09.299Z,1.50
2023-02-25T14:17:55.357Z,1.43
2023-02-25T14:20:22.529Z,1.17
2023-02-25T14:22:55.810Z,2.00
2023-02-25T14:25:28.945Z,2.20
2023-02-25T14:27:58.794Z,2.87
2023-02-25T14:30:44.512Z,1.60
2023-02-25T14:33:11.700Z,2.37
2023-02-25T14:35:38.767Z,3.23
2023-02-25T14:38:14.945Z,1.70
2023-02-25T14:40:57.476Z,2.40
2023-02-25T14:43:35.289Z,2.00
2023-02-25T14:46:08.038Z,2.70
2023-02-25T14:48:48.734Z,3.20
2023-02-25T14:51:18.886Z,3.30
2023-02-25T14:53:46.024Z,1.80
2023-02-25T14:56:31.579Z,2.10
2023-02-25T14:58:58.702Z,2.50
2023-02-25T15:01:26.858Z,2.70
2023-02-25T15:04:13.076Z,4.30
2023-02-25T15:06:52.389Z,2.90
2023-02-25T15:09:20.813Z,3.30
2023-02-25T15:12:04.386Z,2.20
2023-02-25T15:15:04.029Z,2.10
2023-02-25T15:17:51.127Z,2.20
2023-02-25T15:20:18.331Z,1.93
2023-02-25T15:23:06.908Z,2.10
2023-02-25T15:25:38.850Z,1.70
2023-02-25T15:28:25.930Z,1.77
2023-02-25T15:30:59.214Z,1.97
2023-02-25T15:33:39.793Z,1.77
2023-02-25T15:36:15.766Z,1.90
2023-02-25T15:38:50.399Z,2.00
2023-02-25T15:41:29.504Z,2.30
2023-02-25T15:44:00.544Z,1.70
2023-02-25T15:46:37.148Z,2.03
2023-02-25T15:49:16.545Z,2.40
2023-02-25T15:51:48.486Z,6.70
2023-02-25T15:54:30.649Z,11.47
2023-02-25T15:57:01.352Z,3.37
2023-02-25T15:59:47.897Z,3.67
2023-02-25T16:02:30.139Z,3.57
2023-02-25T16:05:03.122Z,2.60
2023-02-25T16:07:35.126Z,2.30
2023-02-25T16:10:06.192Z,3.60
2023-02-25T16:12:33.634Z,2.93
2023-02-25T16:15:01.528Z,2.63
2023-02-25T16:17:28.640Z,1.97
2023-02-25T16:19:59.317Z,1.93
2023-02-25T16:22:29.919Z,1.90
2023-02-25T16:24:58.766Z,2.60
2023-02-25T16:27:37.414Z,2.90
2023-02-25T16:30:12.434Z,2.00
2023-02-25T16:32:43.924Z,2.20
2023-02-25T16:35:15.014Z,1.80
2023-02-25T16:38:02.896Z,1.80
2023-02-25T16:40:31.971Z,1.83
2023-02-25T16:42:59.669Z,2.23
2023-02-25T16:45:28.837Z,2.20
2023-02-25T16:47:58.265Z,1.87
2023-02-25T16:50:26.151Z,2.10
2023-02-25T16:52:53.958Z,2.43
2023-02-25T16:55:30.281Z,2.53
2023-02-25T16:58:05.318Z,2.40
2023-02-25T17:00:33.122Z,2.80
2023-02-25T17:03:01.628Z,2.10
2023-02-25T17:05:37.230Z,2.07
2023-02-25T17:08:06.322Z,2.20
2023-02-25T17:10:35.380Z,1.90
2023-02-25T17:13:03.357Z,1.90
2023-02-25T17:15:32.326Z,2.00
2023-02-25T17:18:10.947Z,2.27
2023-02-25T17:20:38.111Z,2.10
2023-02-25T17:23:11.126Z,2.90
2023-02-25T17:25:42.902Z,2.60
2023-02-25T17:28:16.813Z,2.23
2023-02-25T17:30:48.211Z,2.07
2023-02-25T17:33:25.761Z,2.90
2023-02-25T17:35:55.455Z,3.33
2023-02-25T17:38:24.727Z,3.10
2023-02-25T17:40:55.584Z,3.23
2023-02-25T17:43:27.004Z,3.10
2023-02-25T17:45:56.656Z,3.00
2023-02-25T17:48:28.533Z,3.20
2023-02-25T17:51:07.160Z,5.07
2023-02-25T17:53:34.283Z,3.47
2023-02-25T17:56:18.577Z,2.60
2023-02-25T17:58:46.040Z,2.57
2023-02-25T18:01:21.130Z,3.07
2023-02-25T18:03:48.362Z,2.70
2023-02-25T18:06:35.837Z,2.20
2023-02-25T18:09:03.394Z,2.70
2023-02-25T18:11:32.962Z,2.50
2023-02-25T18:14:05.397Z,2.33
2023-02-25T18:16:40.132Z,2.70
2023-02-25T18:19:12.168Z,7.70
2023-02-25T18:21:42.952Z,3.77
2023-02-25T18:24:22.043Z,3.53
2023-02-25T18:27:02.438Z,3.40
2023-02-25T18:29:29.539Z,5.93
2023-02-25T18:31:56.689Z,3.20
2023-02-25T18:34:23.868Z,2.37
2023-02-25T18:36:51.046Z,2.70
2023-02-25T18:39:19.517Z,2.70
2023-02-25T18:41:46.642Z,2.50
2023-02-25T18:44:14.462Z,3.13
2023-02-25T18:46:41.697Z,2.80
2023-02-25T18:49:08.926Z,2.70
2023-02-25T18:51:36.341Z,3.07
2023-02-25T18:54:03.456Z,2.50
2023-02-25T18:56:30.594Z,2.60
2023-02-25T18:58:57.934Z,3.30
2023-02-25T19:01:26.909Z,3.47
2023-02-25T19:03:59.279Z,2.40
2023-02-25T19:06:31.950Z,2.03
2023-02-25T19:08:59.038Z,2.93
2023-02-25T19:11:28.042Z,3.40
2023-02-25T19:13:55.179Z,2.67
2023-02-25T19:16:23.625Z,2.77
2023-02-25T19:18:50.961Z,2.90
2023-02-25T19:21:20.244Z,3.07
2023-02-25T19:23:51.649Z,3.27
2023-02-25T19:26:19.112Z,3.70
2023-02-25T19:28:46.272Z,3.17
2023-02-25T19:31:13.674Z,3.30
2023-02-25T19:33:40.894Z,3.03
2023-02-25T19:36:08.734Z,3.00
2023-02-25T19:38:35.910Z,3.00
2023-02-25T19:41:06.032Z,3.00
2023-02-25T19:43:33.432Z,3.17
2023-02-25T19:46:00.945Z,4.10
2023-02-25T19:48:28.152Z,3.67
2023-02-25T19:50:55.350Z,4.30
2023-02-25T19:53:22.518Z,2.83
2023-02-25T19:55:49.682Z,2.90
2023-02-25T19:58:16.861Z,2.80
2023-02-25T20:00:46.341Z,2.10
2023-02-25T20:03:13.891Z,2.30
2023-02-25T20:05:41.651Z,2.17
2023-02-25T20:08:09.136Z,2.37
2023-02-25T20:10:36.380Z,3.60
2023-02-25T20:13:03.574Z,2.50
2023-02-25T20:15:30.836Z,2.30
2023-02-25T20:17:58.430Z,2.40
2023-02-25T20:20:25.767Z,2.10
2023-02-25T20:22:53.296Z,2.40
2023-02-25T20:25:20.510Z,2.60
2023-02-25T20:27:47.730Z,2.10
2023-02-25T20:30:16.193Z,2.63
2023-02-25T20:32:44.923Z,2.10
2023-02-25T20:35:15.378Z,2.00
2023-02-25T20:37:45.053Z,1.97
2023-02-25T20:40:12.423Z,2.03
2023-02-25T20:42:39.619Z,2.07
2023-02-25T20:45:07.795Z,2.07
2023-02-25T20:47:36.463Z,2.67
2023-02-25T20:50:04.506Z,2.63
2023-02-25T20:52:31.770Z,2.43
2023-02-25T20:54:59.018Z,3.40
2023-02-25T20:57:27.485Z,2.90
2023-02-25T20:59:55.068Z,2.27
2023-02-25T21:02:22.316Z,2.50
2023-02-25T21:04:50.363Z,2.87
2023-02-25T21:07:17.529Z,2.30
2023-02-25T21:09:44.635Z,2.17
2023-02-25T21:12:11.790Z,2.53
2023-02-25T21:14:38.936Z,2.43
2023-02-25T21:17:09.460Z,3.07
2023-02-25T21:19:38.691Z,3.03
2023-02-25T21:22:06.339Z,2.77
2023-02-25T21:24:33.710Z,2.73
2023-02-25T21:27:04.397Z,2.63
2023-02-25T21:29:32.500Z,2.77
2023-02-25T21:31:59.748Z,3.27
2023-02-25T21:34:27.038Z,2.90
2023-02-25T21:36:56.314Z,2.77
2023-02-25T21:39:23.434Z,2.70
2023-02-25T21:41:50.882Z,3.00
2023-02-25T21:44:18.012Z,2.90
2023-02-25T21:46:45.132Z,3.13
2023-02-25T21:49:12.264Z,3.20
2023-02-25T21:51:40.264Z,3.00
2023-02-25T21:54:07.454Z,2.70
2023-02-25T21:56:34.611Z,2.80
2023-02-25T21:59:03.357Z,2.80
2023-02-25T22:01:31.844Z,3.30
2023-02-25T22:03:59.519Z,2.47
2023-02-25T22:06:27.232Z,2.50
2023-02-25T22:08:54.904Z,2.90
2023-02-25T22:11:23.082Z,2.50
2023-02-25T22:13:50.714Z,2.93
2023-02-25T22:16:18.224Z,2.73
2023-02-25T22:18:45.611Z,2.60
2023-02-25T22:21:18.827Z,2.40
2023-02-25T22:23:45.988Z,2.97
2023-02-25T22:26:14.932Z,2.50
2023-02-25T22:28:43.147Z,2.50
2023-02-25T22:31:14.548Z,2.30
2023-02-25T22:33:41.823Z,2.53
2023-02-25T22:36:09.633Z,2.43
2023-02-25T22:38:40.984Z,2.43
2023-02-25T22:41:12.277Z,2.90
2023-02-25T22:43:39.572Z,2.53
2023-02-25T22:46:10.342Z,2.33
2023-02-25T22:48:38.671Z,2.40
2023-02-25T22:51:06.430Z,2.27
2023-02-25T22:53:33.564Z,2.60
2023-02-25T22:56:03.948Z,2.80
2023-02-25T22:58:31.320Z,2.30
2023-02-25T23:00:59.059Z,2.67
2023-02-25T23:03:26.520Z,2.50
2023-02-25T23:05:54.785Z,2.90
2023-02-25T23:08:22.366Z,3.20
2023-02-25T23:10:49.541Z,3.20
2023-02-25T23:13:16.758Z,3.10
2023-02-25T23:15:47.351Z,3.20
2023-02-25T23:18:15.106Z,3.17
2023-02-25T23:20:42.289Z,3.00
2023-02-25T23:23:09.653Z,3.23
2023-02-25T23:25:38.749Z,2.93
2023-02-25T23:28:07.680Z,2.60
2023-02-25T23:30:37.803Z,3.10
2023-02-25T23:33:05.127Z,2.70
2023-02-25T23:35:33.412Z,3.30
2023-02-25T23:38:00.632Z,2.80
2023-02-25T23:40:28.875Z,3.27
2023-02-25T23:42:56.267Z,2.77
2023-02-25T23:45:23.505Z,2.97
2023-02-25T23:47:50.729Z,2.70
2023-02-25T23:50:19.128Z,2.67
2023-02-25T23:52:46.899Z,3.10
2023-02-25T23:55:16.162Z,3.03
2023-02-25T23:57:43.365Z,2.80
